Time;durP1;ratioP1;P1;durP2;ratioP2;P2;SDS_P1;SDS_P2;PMS_P1;PMS_P2;Temp;Humidity;BMP_temperature;BMP_pressure;BME280_temperature;BME280_humidity;BME280_pressure;Samples;Min_cycle;Max_cycle;Signal;HPM_P1;HPM_P2
2022/11/01 00:00:49;;;;;;;12.20;10.90;;;;;;;21.72;41.93;95773.13;6039494;28;103877;-68
2022/11/01 00:03:53;;;;;;;10.33;9.43;;;;;;;21.73;42.09;95766.72;6039414;28;103773;-68
2022/11/01 00:06:56;;;;;;;12.60;11.40;;;;;;;21.71;41.69;95771.53;6030638;28;103597;-68
2022/11/01 00:09:59;;;;;;;11.40;10.30;;;;;;;21.71;41.85;95764.34;6038435;28;103852;-68
2022/11/01 00:13:02;;;;;;;12.03;10.83;;;;;;;21.72;41.89;95775.78;6040287;28;104271;-68
2022/11/01 00:16:07;;;;;;;11.13;10.20;;;;;;;21.71;41.77;95774.19;6039898;28;104016;-68
2022/11/01 00:19:12;;;;;;;11.73;10.57;;;;;;;21.70;41.94;95768.06;6029287;28;106382;-69
2022/11/01 00:22:15;;;;;;;11.13;10.13;;;;;;;21.70;42.12;95777.94;6038001;28;103724;-68
2022/11/01 00:25:18;;;;;;;11.40;10.17;;;;;;;21.69;41.86;95776.34;6038907;28;103678;-69
2022/11/01 00:28:21;;;;;;;11.43;10.33;;;;;;;21.69;41.69;95776.34;6038360;28;104157;-69
2022/11/01 00:31:25;;;;;;;10.83;9.90;;;;;;;21.68;41.70;95775.56;6025415;28;104103;-69
2022/11/01 00:34:29;;;;;;;12.33;10.83;;;;;;;21.69;41.77;95769.16;6037223;28;103807;-69
2022/11/01 00:37:32;;;;;;;10.73;9.63;;;;;;;21.68;41.77;95780.91;6038798;28;103779;-68
2022/11/01 00:40:35;;;;;;;11.53;10.43;;;;;;;21.67;42.07;95778.47;6024008;28;104948;-68
2022/11/01 00:43:38;;;;;;;10.20;9.33;;;;;;;21.67;42.16;95776.63;6034351;28;103275;-69
2022/11/01 00:46:42;;;;;;;10.20;9.30;;;;;;;21.66;41.71;95771.56;6038827;28;103847;-68
2022/11/01 00:49:46;;;;;;;11.07;9.97;;;;;;;21.66;41.98;95768.91;6039185;28;105135;-69
2022/11/01 00:52:49;;;;;;;10.63;9.63;;;;;;;21.66;41.56;95772.38;6028568;28;105420;-69
2022/11/01 00:55:53;;;;;;;10.87;9.83;;;;;;;21.66;41.57;95776.91;6038990;28;104000;-68
2022/11/01 00:58:56;;;;;;;9.63;8.77;;;;;;;21.65;41.74;95775.31;6038428;28;103953;-68
2022/11/01 01:01:59;;;;;;;9.47;8.50;;;;;;;21.65;41.43;95776.09;6031663;28;103772;-69
2022/11/01 01:05:04;;;;;;;10.40;9.50;;;;;;;21.64;41.50;95774.53;6026882;28;104251;-69
2022/11/01 01:08:07;;;;;;;11.00;10.00;;;;;;;21.63;41.36;95772.94;6032277;28;103886;-68
2022/11/01 01:11:10;;;;;;;10.53;9.53;;;;;;;21.64;41.55;95779.84;6038090;28;103818;-70
2022/11/01 01:14:13;;;;;;;9.27;8.47;;;;;;;21.63;41.21;95774.81;6028789;28;104210;-68
2022/11/01 01:17:16;;;;;;;10.10;9.20;;;;;;;21.62;41.62;95770.56;6030090;28;104483;-69
2022/11/01 01:20:21;;;;;;;9.63;8.77;;;;;;;21.62;41.85;95773.22;6038413;28;104198;-68
2022/11/01 01:23:24;;;;;;;9.37;8.57;;;;;;;21.61;41.67;95775.09;6038986;28;103459;-68
2022/11/01 01:26:27;;;;;;;10.67;9.77;;;;;;;21.61;41.43;95768.97;6029630;28;104335;-68
2022/11/01 01:29:30;;;;;;;10.03;9.13;;;;;;;21.61;41.40;95768.97;6036529;28;103689;-68
2022/11/01 01:32:34;;;;;;;10.30;9.37;;;;;;;21.58;41.31;95767.69;6037781;28;103748;-69
2022/11/01 01:35:39;;;;;;;9.03;8.13;;;;;;;21.60;41.30;95773.50;6037813;28;103849;-68
2022/11/01 01:38:42;;;;;;;9.27;8.30;;;;;;;21.61;41.61;95771.66;6018816;28;104053;-68
2022/11/01 01:41:57;;;;;;;10.07;9.07;;;;;;;21.58;41.15;95769.56;6038877;28;104246;-68
2022/11/01 01:45:30;;;;;;;8.70;8.00;;;;;;;21.58;41.22;95767.69;6042240;28;103642;-68
2022/11/01 01:48:33;;;;;;;8.40;7.70;;;;;;;21.57;41.04;95770.63;6039146;28;103925;-67
2022/11/01 01:51:37;;;;;;;8.67;7.77;;;;;;;21.58;41.16;95772.22;6035602;28;103923;-69
2022/11/01 01:54:41;;;;;;;10.40;8.87;;;;;;;21.57;41.13;95774.09;6043189;28;106132;-68
2022/11/01 01:57:44;;;;;;;9.57;8.67;;;;;;;21.57;41.31;95778.63;6042193;28;103744;-68
2022/11/01 02:00:47;;;;;;;9.13;8.27;;;;;;;21.57;41.58;95778.63;6032227;28;104795;-69
2022/11/01 02:03:51;;;;;;;9.37;8.47;;;;;;;21.56;40.99;95777.03;6042261;28;103786;-68
2022/11/01 02:06:55;;;;;;;8.90;8.00;;;;;;;21.55;41.47;95783.44;6040147;28;106613;-70
2022/11/01 02:09:59;;;;;;;8.90;7.97;;;;;;;21.56;41.01;95783.16;6043574;28;105869;-68
2022/11/01 02:13:03;;;;;;;9.43;8.63;;;;;;;21.55;41.10;95781.56;6029722;28;104338;-68
2022/11/01 02:16:25;;;;;;;9.70;8.80;;;;;;;21.55;41.45;95786.09;6040648;28;103537;-67
2022/11/01 02:19:55;;;;;;;8.27;7.57;;;;;;;21.52;41.48;95785.59;6041037;28;104018;-68
2022/11/01 02:23:18;;;;;;;8.70;7.90;;;;;;;21.54;41.35;95790.63;6035223;28;104464;-67
2022/11/01 02:26:54;;;;;;;8.50;7.70;;;;;;;21.52;41.19;95792.78;6040722;28;104023;-68
2022/11/01 02:30:16;;;;;;;8.87;8.07;;;;;;;21.54;41.09;95795.16;6039987;28;103850;-69
2022/11/01 02:33:29;;;;;;;8.57;7.77;;;;;;;21.52;40.80;95782.94;6041016;28;103792;-68
2022/11/01 02:36:37;;;;;;;8.43;7.63;;;;;;;21.53;40.74;95805.03;6030292;28;103928;-68
2022/11/01 02:39:47;;;;;;;8.70;7.80;;;;;;;21.52;41.03;95798.13;6041059;28;103421;-69
2022/11/01 02:42:56;;;;;;;8.93;8.10;;;;;;;21.50;41.17;95806.38;6041955;28;103841;-68
2022/11/01 02:46:59;;;;;;;9.27;8.40;;;;;;;21.50;40.85;95806.38;6030918;28;103281;-68
2022/11/01 02:49:30;;;;;;;9.07;8.17;;;;;;;21.50;40.93;95806.38;6040528;28;103925;-68
2022/11/01 02:52:37;;;;;;;8.37;7.50;;;;;;;21.51;40.92;95809.84;6040229;28;103838;-69
2022/11/01 02:55:40;;;;;;;8.80;8.00;;;;;;;21.49;40.78;95810.09;6041317;28;103721;-68
2022/11/01 02:58:45;;;;;;;8.53;7.73;;;;;;;21.49;40.92;95814.63;6026156;28;103675;-68
2022/11/01 03:01:55;;;;;;;9.70;8.70;;;;;;;21.49;41.04;95814.63;6031623;28;104056;-68
2022/11/01 03:05:00;;;;;;;9.27;8.37;;;;;;;21.49;41.11;95819.97;6041926;28;107202;-68
2022/11/01 03:08:07;;;;;;;8.20;7.50;;;;;;;21.49;40.73;95815.44;6034331;28;103744;-68
2022/11/01 03:11:12;;;;;;;8.70;8.00;;;;;;;21.49;41.02;95822.63;6036142;28;103911;-69
2022/11/01 03:14:26;;;;;;;8.37;7.67;;;;;;;21.48;40.68;95823.72;6041170;28;102895;-69
2022/11/01 03:17:33;;;;;;;8.70;7.90;;;;;;;21.47;40.89;95830.91;6040348;28;104098;-69
2022/11/01 03:20:48;;;;;;;8.43;7.67;;;;;;;21.46;41.09;95825.88;6030490;28;103848;-69
2022/11/01 03:24:01;;;;;;;8.07;7.37;;;;;;;21.47;40.69;95825.56;6040151;28;103407;-69
2022/11/01 03:27:10;;;;;;;9.43;8.07;;;;;;;21.45;40.92;95830.41;6039802;28;103885;-69
2022/11/01 03:30:15;;;;;;;8.40;7.63;;;;;;;21.45;41.17;95821.63;6037550;28;103630;-68
2022/11/01 03:33:19;;;;;;;8.00;7.27;;;;;;;21.45;40.86;95819.75;6033061;28;103857;-69
2022/11/01 03:36:27;;;;;;;8.13;7.33;;;;;;;21.45;41.13;95822.41;6018214;28;103690;-68
2022/11/01 03:39:35;;;;;;;8.20;7.40;;;;;;;21.44;40.87;95822.69;6038629;28;104069;-68
2022/11/01 03:42:39;;;;;;;7.80;7.10;;;;;;;21.45;40.87;95816.28;6029072;28;103802;-69
2022/11/01 03:45:43;;;;;;;8.80;7.90;;;;;;;21.43;40.98;95819.22;6040409;28;103721;-68
2022/11/01 03:48:46;;;;;;;7.60;6.90;;;;;;;21.43;40.67;95816.56;6040739;28;103713;-69
2022/11/01 03:51:51;;;;;;;8.00;7.30;;;;;;;21.42;40.99;95811.53;6040055;28;103854;-69
2022/11/01 03:54:54;;;;;;;7.83;7.17;;;;;;;21.42;40.85;95814.19;6031432;28;104351;-68
2022/11/01 03:57:59;;;;;;;8.60;6.97;;;;;;;21.42;40.98;95816.84;6039887;28;103465;-69
2022/11/01 04:01:03;;;;;;;8.27;7.47;;;;;;;21.42;40.58;95820.31;6039021;28;103806;-69
2022/11/01 04:04:06;;;;;;;7.80;7.00;;;;;;;21.42;40.91;95817.66;6039824;28;103745;-69
2022/11/01 04:07:10;;;;;;;8.80;7.90;;;;;;;21.39;40.46;95825.41;6028966;28;107208;-69
2022/11/01 04:10:14;;;;;;;8.90;7.00;;;;;;;21.36;41.07;95829.44;6039604;28;103727;-71
2022/11/01 04:13:17;;;;;;;7.57;6.93;;;;;;;21.37;40.67;95830.22;6038726;28;104176;-69
2022/11/01 04:23:04;;;;;;;15.10;13.53;;;;;;;21.17;40.38;95829.34;6039875;28;103891;-70
2022/11/01 04:26:12;;;;;;;16.40;14.83;;;;;;;21.14;40.16;95829.09;6040738;28;106505;-70
2022/11/01 04:29:15;;;;;;;15.03;12.73;;;;;;;21.06;39.79;95827.84;6028152;28;103720;-69
2022/11/01 04:32:17;;;;;;;14.90;13.33;;;;;;;;;;6039744;28;103438;-69
2022/11/01 04:35:21;;;;;;;18.70;14.60;;;;;;;20.95;40.04;95822.84;6035722;28;103721;-67
2022/11/01 04:38:25;;;;;;;16.03;14.43;;;;;;;20.90;39.67;95826.34;6036394;28;104248;-68
2022/11/01 04:41:29;;;;;;;17.10;14.63;;;;;;;20.87;39.43;95825.03;6033403;28;106290;-68
2022/11/01 04:44:32;;;;;;;16.63;14.47;;;;;;;20.84;39.32;95830.13;6037555;28;103985;-68
2022/11/01 04:47:35;;;;;;;19.47;17.53;;;;;;;20.75;39.23;95829.91;6039751;28;104885;-68
2022/11/01 04:50:39;;;;;;;20.03;16.70;;;;;;;20.73;38.99;95834.72;6028673;28;103539;-69
2022/11/01 04:53:43;;;;;;;17.77;15.10;;;;;;;20.75;38.87;95831.78;6039539;28;103859;-69
2022/11/01 04:56:46;;;;;;;16.60;14.40;;;;;;;20.67;39.14;95832.34;6032834;28;106295;-68
2022/11/01 04:59:49;;;;;;;17.23;13.17;;;;;;;20.81;39.01;95830.66;6038490;28;103466;-68
2022/11/01 05:02:59;;;;;;;15.50;12.70;;;;;;;20.89;39.20;95833.53;6029067;28;103932;-68
2022/11/01 05:06:03;;;;;;;14.03;12.63;;;;;;;20.93;39.35;95839.09;6038582;28;104102;-71
2022/11/01 05:09:08;;;;;;;13.97;12.57;;;;;;;20.92;39.17;95838.31;6039659;28;103874;-69
2022/11/01 05:12:11;;;;;;;13.83;12.27;;;;;;;20.96;40.00;95838.53;6038472;28;103889;-70
2022/11/01 05:15:14;;;;;;;16.60;13.13;;;;;;;20.99;40.09;95845.94;6028626;28;103902;-71
2022/11/01 05:18:18;;;;;;;16.33;12.80;;;;;;;20.99;39.98;95847.81;6041527;28;103778;-70
2022/11/01 05:21:21;;;;;;;18.63;14.13;;;;;;;21.02;39.32;95852.59;6041666;28;104087;-71
2022/11/01 05:24:25;;;;;;;15.13;12.80;;;;;;;21.02;40.32;95858.72;6031732;28;103921;-69
2022/11/01 05:27:28;;;;;;;15.17;13.53;;;;;;;21.05;40.80;95860.84;6042255;28;104017;-70
2022/11/01 05:30:31;;;;;;;15.80;13.57;;;;;;;21.03;39.49;95865.63;6036864;28;103943;-70
2022/11/01 05:33:34;;;;;;;13.20;11.80;;;;;;;21.05;39.50;95868.84;6039346;28;104208;-69
2022/11/01 05:36:37;;;;;;;16.50;12.50;;;;;;;21.03;39.75;95865.63;6030459;28;104026;-70
2022/11/01 05:39:42;;;;;;;18.30;12.67;;;;;;;21.11;40.25;95867.72;6040000;28;104047;-68
2022/11/01 05:42:45;;;;;;;20.70;14.10;;;;;;;21.12;39.58;95873.81;6024631;28;103845;-68
2022/11/01 05:45:48;;;;;;;17.90;15.03;;;;;;;21.06;38.85;95875.75;6041279;28;103881;-70
2022/11/01 05:48:51;;;;;;;24.27;15.50;;;;;;;20.90;38.87;95875.03;6032511;28;106303;-70
2022/11/01 05:51:54;;;;;;;17.33;14.23;;;;;;;20.80;39.17;95877.75;6043502;28;103879;-70
2022/11/01 05:54:58;;;;;;;17.43;13.77;;;;;;;20.80;38.36;95879.63;6044131;28;103524;-70
2022/11/01 05:58:01;;;;;;;31.20;15.00;;;;;;;20.80;38.94;95883.06;6038941;28;104410;-68
2022/11/01 06:01:06;;;;;;;16.50;13.27;;;;;;;20.88;39.51;95884.38;6038115;28;103673;-69
2022/11/01 06:04:09;;;;;;;21.73;14.10;;;;;;;21.77;37.75;95895.59;6042825;28;103601;-67
2022/11/01 06:07:12;;;;;;;20.73;12.90;;;;;;;22.27;36.81;95896.94;6043320;28;103892;-68
2022/11/01 06:10:17;;;;;;;23.10;14.03;;;;;;;23.34;34.84;95900.78;6033425;28;103661;-67
2022/11/01 06:13:20;;;;;;;15.60;14.00;;;;;;;23.50;33.82;95885.28;6042950;28;103859;-68
2022/11/01 06:16:24;;;;;;;17.10;14.80;;;;;;;22.10;36.62;95894.72;6042003;28;103890;-68
2022/11/01 06:19:27;;;;;;;17.27;15.47;;;;;;;21.59;37.52;95894.44;6043181;28;103727;-68
2022/11/01 06:22:30;;;;;;;15.83;13.90;;;;;;;21.49;37.58;95894.53;6031808;28;103760;-67
2022/11/01 06:25:35;;;;;;;16.57;14.73;;;;;;;21.45;37.84;95893.50;6042145;28;104227;-68
2022/11/01 06:28:38;;;;;;;20.00;14.33;;;;;;;21.32;38.58;95900.28;6042483;28;106614;-67
2022/11/01 06:31:41;;;;;;;15.23;13.73;;;;;;;21.46;38.92;95898.56;6042770;28;103776;-69
2022/11/01 06:34:44;;;;;;;17.13;13.20;;;;;;;21.61;38.14;95907.47;6034656;28;103812;-68
2022/11/01 06:37:47;;;;;;;13.27;11.97;;;;;;;21.71;38.42;95904.72;6042767;28;103647;-67
2022/11/01 06:40:52;;;;;;;12.50;11.30;;;;;;;21.79;37.75;95902.22;6039526;28;103761;-68
2022/11/01 06:43:55;;;;;;;11.97;10.73;;;;;;;21.84;38.12;95904.06;6026916;28;103925;-68
2022/11/01 06:46:58;;;;;;;11.73;9.93;;;;;;;21.88;37.93;95906.97;6021834;28;103780;-68
2022/11/01 06:50:01;;;;;;;11.20;10.20;;;;;;;21.94;38.33;95906.63;6019669;29;103490;-69
2022/11/01 06:53:04;;;;;;;10.40;9.33;;;;;;;21.99;37.85;95903.91;6019800;29;104508;-68
2022/11/01 06:56:09;;;;;;;10.83;8.87;;;;;;;22.02;38.16;95903.38;6008542;28;103879;-68
2022/11/01 06:59:12;;;;;;;12.00;8.17;;;;;;;22.06;38.02;95906.25;6019041;28;103733;-68
2022/11/01 07:02:15;;;;;;;8.87;7.87;;;;;;;22.10;38.19;95904.59;6019233;28;104207;-67
2022/11/01 07:05:21;;;;;;;10.20;8.30;;;;;;;22.12;38.32;95913.09;6019394;28;103996;-68
2022/11/01 07:08:24;;;;;;;8.83;7.53;;;;;;;22.16;38.58;95902.66;6008753;29;104216;-67
2022/11/01 07:11:28;;;;;;;8.43;7.40;;;;;;;22.20;38.51;95903.69;6019011;29;103660;-68
2022/11/01 07:14:33;;;;;;;11.40;8.00;;;;;;;22.23;38.51;95895.13;6019468;29;106206;-69
2022/11/01 07:17:36;;;;;;;9.53;8.30;;;;;;;22.25;38.28;95891.09;6012956;28;103916;-67
2022/11/01 07:20:43;;;;;;;12.47;7.00;;;;;;;22.29;38.30;95896.63;6021438;28;105127;-67
2022/11/01 07:23:46;;;;;;;8.30;7.40;;;;;;;22.31;38.19;95897.13;6042901;28;104156;-67
2022/11/01 07:26:51;;;;;;;9.10;7.67;;;;;;;22.36;38.72;95899.75;6041389;28;103744;-67
2022/11/01 07:29:54;;;;;;;10.57;6.87;;;;;;;22.37;38.58;95896.00;6030995;28;106159;-67
2022/11/01 07:32:58;;;;;;;8.90;7.07;;;;;;;22.38;38.60;95894.94;6041863;28;103488;-67
2022/11/01 07:36:02;;;;;;;9.03;7.30;;;;;;;22.37;39.01;95896.81;6041732;28;103663;-67
2022/11/01 07:39:05;;;;;;;7.83;7.03;;;;;;;22.40;38.57;95896.22;6041444;28;103930;-67
2022/11/01 07:42:10;;;;;;;12.30;8.83;;;;;;;22.42;39.42;95896.72;6029885;28;103449;-67
2022/11/01 07:45:14;;;;;;;13.83;7.90;;;;;;;22.43;39.03;95897.53;6041341;28;103949;-67
2022/11/01 07:48:19;;;;;;;10.93;7.83;;;;;;;22.43;39.30;95900.19;6040310;28;103912;-66
2022/11/01 07:51:22;;;;;;;12.20;8.10;;;;;;;22.48;39.51;95905.44;6036839;28;103803;-67
2022/11/01 07:54:25;;;;;;;10.13;8.50;;;;;;;22.46;39.05;95896.94;6034795;28;103691;-67
2022/11/01 07:57:30;;;;;;;9.97;8.60;;;;;;;22.48;39.25;95897.44;6040920;28;103828;-67
2022/11/01 08:00:33;;;;;;;11.57;8.20;;;;;;;22.48;39.22;95894.00;6041413;28;103797;-67
2022/11/01 08:03:41;;;;;;;13.53;9.03;;;;;;;22.50;39.30;95891.81;6029730;28;103395;-67
2022/11/01 08:06:44;;;;;;;8.57;7.50;;;;;;;22.54;38.99;95898.19;6041254;28;103873;-67
2022/11/01 08:09:53;;;;;;;12.30;9.00;;;;;;;22.55;39.11;95897.91;6041199;28;103862;-67
2022/11/01 08:13:02;;;;;;;9.80;8.80;;;;;;;22.54;38.84;95888.31;6019497;28;103740;-67
2022/11/01 08:16:06;;;;;;;10.73;8.20;;;;;;;22.58;39.19;95889.34;6008279;28;104207;-67
2022/11/01 08:19:11;;;;;;;11.13;8.37;;;;;;;22.62;39.02;95887.69;6016327;28;104050;-67
2022/11/01 08:22:14;;;;;;;16.20;10.07;;;;;;;22.61;38.78;95886.09;6017875;28;103682;-68
2022/11/01 08:25:17;;;;;;;10.80;9.43;;;;;;;22.66;38.50;95879.91;6012565;29;103685;-68
2022/11/01 08:28:22;;;;;;;11.43;9.77;;;;;;;22.66;38.88;95880.69;6010684;28;105980;-67
2022/11/01 08:31:25;;;;;;;11.60;9.33;;;;;;;22.66;38.73;95878.03;6017123;28;103849;-68
2022/11/01 08:34:30;;;;;;;12.13;10.30;;;;;;;22.59;38.80;95877.59;6017660;28;103735;-68
2022/11/01 08:37:33;;;;;;;15.97;10.57;;;;;;;22.59;38.96;95880.28;6007624;29;102933;-68
2022/11/01 08:40:36;;;;;;;10.73;9.10;;;;;;;22.57;39.31;95869.09;6016808;28;104182;-67
2022/11/01 08:43:40;;;;;;;13.67;9.70;;;;;;;22.57;39.75;95870.97;6017497;28;103893;-67
2022/11/01 08:46:44;;;;;;;14.40;9.80;;;;;;;22.57;40.08;95865.63;6017320;29;105617;-66
2022/11/01 08:49:47;;;;;;;17.57;10.00;;;;;;;22.56;39.67;95864.81;6005760;28;103856;-69
2022/11/01 08:52:50;;;;;;;17.20;11.47;;;;;;;22.54;39.13;95866.19;6020499;28;103751;-67
2022/11/01 08:55:55;;;;;;;12.43;10.97;;;;;;;22.48;38.85;95857.44;6020846;28;104190;-67
2022/11/01 08:59:00;;;;;;;13.77;10.77;;;;;;;22.49;39.43;95863.56;6021078;28;103813;-69
2022/11/01 09:02:03;;;;;;;13.77;10.73;;;;;;;22.51;39.69;95861.41;6009991;28;103686;-68
2022/11/01 09:05:07;;;;;;;12.57;9.70;;;;;;;22.51;39.35;95861.41;6021247;28;103917;-69
2022/11/01 09:08:10;;;;;;;12.23;11.00;;;;;;;22.48;39.60;95852.09;6021206;29;103565;-69
2022/11/01 09:11:13;;;;;;;17.67;11.93;;;;;;;22.48;39.82;95849.44;6014959;28;103642;-69
2022/11/01 09:14:19;;;;;;;14.10;11.30;;;;;;;22.45;39.85;95850.03;6018338;28;104525;-70
2022/11/01 09:17:22;;;;;;;12.67;11.27;;;;;;;22.46;39.00;95853.47;6020673;28;103772;-69
2022/11/01 09:20:27;;;;;;;15.27;10.90;;;;;;;22.49;39.17;95842.22;6020712;29;105932;-69
2022/11/01 09:23:30;;;;;;;11.07;9.97;;;;;;;22.49;39.56;95836.91;6010202;28;104166;-68
2022/11/01 09:26:33;;;;;;;14.50;10.70;;;;;;;22.52;39.24;95836.34;6020788;28;103755;-69
2022/11/01 09:29:37;;;;;;;11.83;10.67;;;;;;;22.52;39.81;95837.13;6020332;29;105780;-70
2022/11/01 09:32:40;;;;;;;12.53;10.10;;;;;;;22.56;39.30;95840.00;6020057;28;104175;-69
2022/11/01 09:35:50;;;;;;;14.80;10.90;;;;;;;22.58;39.57;95830.66;6010605;28;103747;-68
2022/11/01 09:39:00;;;;;;;11.97;10.70;;;;;;;22.58;39.75;95830.66;6020341;28;103780;-68
2022/11/01 09:42:06;;;;;;;15.70;11.00;;;;;;;22.59;39.29;95820.78;6020327;28;103791;-67
2022/11/01 09:45:18;;;;;;;11.60;10.50;;;;;;;22.61;39.98;95819.41;6015383;29;103424;-68
2022/11/01 09:48:22;;;;;;;12.53;11.43;;;;;;;22.62;39.98;95813.00;6018489;28;103866;-69
2022/11/01 09:51:27;;;;;;;11.77;10.50;;;;;;;22.64;39.86;95810.81;6019181;28;103771;-69
2022/11/01 09:54:30;;;;;;;11.90;10.67;;;;;;;22.64;39.91;95807.38;6020214;28;103754;-69
2022/11/01 09:57:36;;;;;;;14.17;9.93;;;;;;;22.63;39.84;95800.44;6009551;28;103744;-67
2022/11/01 10:00:47;;;;;;;11.23;10.13;;;;;;;22.64;39.75;95796.69;6019934;28;103970;-69
2022/11/01 10:04:04;;;;;;;12.17;9.53;;;;;;;22.64;39.75;95796.69;6019306;28;103695;-69
2022/11/01 10:07:17;;;;;;;11.70;10.50;;;;;;;22.64;39.93;95794.81;6020478;28;104503;-68
2022/11/01 10:10:34;;;;;;;11.60;9.90;;;;;;;22.66;39.56;95784.66;6011145;28;103787;-69
2022/11/01 10:13:46;;;;;;;10.63;9.63;;;;;;;22.65;39.71;95792.94;6041696;28;103998;-69
2022/11/01 10:17:03;;;;;;;14.10;9.57;;;;;;;22.66;39.57;95783.84;6042834;28;104856;-69
2022/11/01 10:20:11;;;;;;;13.37;10.70;;;;;;;22.67;39.88;95783.56;6033024;28;104041;-68
2022/11/01 10:23:17;;;;;;;12.80;11.57;;;;;;;22.67;40.00;95783.56;6041996;28;104253;-69
2022/11/01 10:26:25;;;;;;;15.37;13.40;;;;;;;22.65;39.87;95777.72;6042987;28;103724;-69
2022/11/01 10:29:36;;;;;;;14.77;13.43;;;;;;;22.67;39.95;95770.22;6042422;28;103834;-69
2022/11/01 10:32:46;;;;;;;14.73;12.83;;;;;;;22.68;40.08;95768.34;6033135;28;103872;-67
2022/11/01 10:35:53;;;;;;;15.17;13.67;;;;;;;22.68;39.77;95763.81;6043111;28;103658;-68
2022/11/01 10:39:06;;;;;;;13.87;12.60;;;;;;;22.68;39.74;95761.16;6042633;28;103861;-68
2022/11/01 10:42:30;;;;;;;15.40;14.00;;;;;;;22.70;40.11;95759.00;6028804;28;103718;-68
2022/11/01 10:45:33;;;;;;;17.03;15.30;;;;;;;22.69;40.25;95756.63;6030823;28;104320;-68
2022/11/01 10:48:43;;;;;;;17.13;15.50;;;;;;;22.69;41.44;95757.41;6029654;28;103805;-68
2022/11/01 10:51:47;;;;;;;18.60;16.80;;;;;;;22.68;41.41;95755.00;6029219;28;104001;-68
2022/11/01 10:54:53;;;;;;;21.50;16.40;;;;;;;22.66;41.13;95747.28;6025744;28;104492;-68
2022/11/01 10:58:01;;;;;;;19.70;16.37;;;;;;;22.65;41.62;95744.91;6031532;28;103746;-69
2022/11/01 11:01:07;;;;;;;17.30;15.60;;;;;;;22.66;41.10;95738.50;6031040;28;103157;-68
2022/11/01 11:04:15;;;;;;;17.10;15.27;;;;;;;22.63;40.75;95742.53;6026720;28;103894;-68
2022/11/01 11:07:20;;;;;;;18.03;15.73;;;;;;;22.62;41.60;95727.63;6023033;28;104008;-69
2022/11/01 11:10:28;;;;;;;18.27;16.30;;;;;;;22.61;41.49;95728.72;6031525;28;103720;-69
2022/11/01 11:13:33;;;;;;;18.33;16.50;;;;;;;22.59;41.57;95720.22;6030359;28;103899;-68
2022/11/01 11:16:43;;;;;;;18.13;16.43;;;;;;;22.58;41.60;95726.63;6017962;28;103924;-68
2022/11/01 11:19:48;;;;;;;16.23;14.93;;;;;;;22.59;41.46;95725.53;6029175;28;103908;-68
2022/11/01 11:22:51;;;;;;;16.67;14.93;;;;;;;22.56;41.92;95726.09;6029970;28;104894;-69
2022/11/01 11:26:01;;;;;;;16.13;14.60;;;;;;;22.56;41.58;95715.44;6029211;28;104362;-68
2022/11/01 11:29:05;;;;;;;16.37;14.87;;;;;;;22.56;41.45;95719.97;6019786;28;103875;-69
2022/11/01 11:32:16;;;;;;;17.13;15.33;;;;;;;22.56;41.72;95710.09;6029095;28;103798;-69
2022/11/01 11:35:23;;;;;;;16.77;15.13;;;;;;;22.57;41.74;95710.91;6028879;28;103749;-69
2022/11/01 11:38:42;;;;;;;16.10;14.60;;;;;;;22.54;41.43;95709.59;6021365;28;103189;-68
2022/11/01 11:41:46;;;;;;;15.97;14.43;;;;;;;22.56;41.77;95704.75;6025498;28;103683;-69
2022/11/01 11:44:50;;;;;;;15.70;14.20;;;;;;;22.52;41.82;95697.66;6028552;28;103918;-69
2022/11/01 11:48:15;;;;;;;15.27;13.93;;;;;;;22.49;41.57;95699.00;6028844;28;103501;-70
2022/11/01 11:51:20;;;;;;;16.30;13.47;;;;;;;22.48;41.31;95699.28;6018563;28;103991;-69
2022/11/01 11:54:27;;;;;;;14.30;12.90;;;;;;;22.47;41.46;95695.84;6030260;28;103825;-69
2022/11/01 11:57:30;;;;;;;14.40;13.00;;;;;;;22.46;41.03;95699.59;6027273;28;103817;-69
2022/11/01 12:00:38;;;;;;;13.40;12.10;;;;;;;22.43;41.54;95686.84;6028569;28;103902;-69
2022/11/01 12:03:47;;;;;;;14.63;13.13;;;;;;;22.42;41.55;95690.59;6017087;28;103777;-69
2022/11/01 12:06:51;;;;;;;14.23;12.80;;;;;;;22.49;41.74;95679.53;6034336;28;103893;-67
2022/11/01 12:09:55;;;;;;;13.60;12.20;;;;;;;22.52;41.87;95682.44;6037529;28;103920;-67
2022/11/01 12:12:58;;;;;;;13.70;12.27;;;;;;;22.56;41.78;95677.31;6030181;28;104915;-68
2022/11/01 12:16:24;;;;;;;14.27;12.80;;;;;;;22.60;41.68;95673.78;6039344;28;104308;-68
2022/11/01 12:19:28;;;;;;;13.33;12.03;;;;;;;22.56;41.80;95667.41;6032723;28;103682;-67
2022/11/01 12:22:35;;;;;;;14.10;12.27;;;;;;;22.62;42.00;95668.16;6027943;28;104433;-69
2022/11/01 12:25:43;;;;;;;13.70;12.50;;;;;;;22.59;41.36;95653.53;6017743;28;104868;-66
2022/11/01 12:28:51;;;;;;;13.57;12.17;;;;;;;22.61;42.03;95658.56;6015525;28;103893;-67
2022/11/01 12:32:00;;;;;;;14.07;10.53;;;;;;;22.62;42.08;95654.81;6024000;28;103975;-66
2022/11/01 12:35:11;;;;;;;12.90;11.57;;;;;;;22.62;42.13;95650.25;6020341;28;104242;-67
2022/11/01 12:38:41;;;;;;;13.57;12.10;;;;;;;22.63;41.65;95645.72;6021067;28;104854;-66
2022/11/01 12:41:50;;;;;;;12.40;11.20;;;;;;;22.61;41.93;95646.00;6029022;28;106453;-67
2022/11/01 12:44:57;;;;;;;12.30;11.30;;;;;;;22.61;41.73;95648.69;6029257;28;103899;-66
2022/11/01 12:48:04;;;;;;;12.47;11.37;;;;;;;22.63;41.86;95645.72;6017130;28;103744;-67
2022/11/01 12:51:13;;;;;;;14.73;10.80;;;;;;;22.61;42.20;95640.69;6028720;28;103790;-66
2022/11/01 12:54:24;;;;;;;11.30;10.20;;;;;;;22.61;42.19;95643.34;6027026;28;103976;-66
2022/11/01 12:57:28;;;;;;;11.90;10.83;;;;;;;22.62;42.11;95634.25;6026369;28;103913;-66
2022/11/01 13:00:43;;;;;;;11.50;10.40;;;;;;;22.62;41.93;95641.47;6017549;28;104395;-67
2022/11/01 13:03:55;;;;;;;11.37;10.30;;;;;;;22.63;41.92;95640.38;6028233;28;103637;-67
2022/11/01 13:07:11;;;;;;;12.30;11.07;;;;;;;22.62;42.14;95636.13;6029389;28;106748;-68
2022/11/01 13:10:22;;;;;;;12.40;11.20;;;;;;;22.63;42.56;95638.50;6016032;28;104105;-67
2022/11/01 13:13:33;;;;;;;11.60;10.60;;;;;;;22.63;42.22;95635.84;6026220;28;103864;-67
2022/11/01 13:16:43;;;;;;;10.60;9.63;;;;;;;22.63;42.28;95640.38;6027655;28;106769;-68
2022/11/01 13:19:55;;;;;;;10.40;9.50;;;;;;;22.65;42.17;95631.00;6026590;28;103976;-68
2022/11/01 13:23:08;;;;;;;12.40;11.20;;;;;;;22.60;42.65;95633.75;6018320;28;103994;-68
2022/11/01 13:26:19;;;;;;;10.77;9.67;;;;;;;22.61;42.21;95637.22;6020185;28;104300;-68
2022/11/01 13:29:34;;;;;;;11.57;10.30;;;;;;;22.61;42.21;95637.22;6027378;28;104112;-68
2022/11/01 13:32:44;;;;;;;10.43;9.43;;;;;;;22.60;42.39;95631.09;6018218;28;103447;-68
2022/11/01 13:35:54;;;;;;;11.30;9.73;;;;;;;22.63;42.69;95624.38;6027740;28;103907;-68
2022/11/01 13:39:06;;;;;;;10.43;9.43;;;;;;;22.63;41.81;95632.38;6030212;28;103810;-68
2022/11/01 13:42:15;;;;;;;10.00;9.00;;;;;;;22.64;42.62;95633.97;6034245;28;103488;-68
2022/11/01 13:45:57;;;;;;;10.53;9.57;;;;;;;22.63;42.87;95619.84;6018723;28;103743;-69
2022/11/01 13:49:44;;;;;;;10.40;9.40;;;;;;;22.63;42.83;95624.38;6008701;28;103763;-68
2022/11/01 13:52:51;;;;;;;10.10;9.20;;;;;;;22.63;42.92;95627.84;6007497;28;104209;-68
2022/11/01 13:55:59;;;;;;;12.83;9.20;;;;;;;22.62;42.98;95622.78;6021743;28;104151;-68
2022/11/01 13:59:13;;;;;;;9.50;8.70;;;;;;;22.64;42.69;95624.06;6031733;28;104006;-68
2022/11/01 14:02:56;;;;;;;9.70;8.77;;;;;;;22.63;43.01;95625.16;6032100;28;103462;-68
2022/11/01 14:06:30;;;;;;;9.33;8.53;;;;;;;22.60;42.91;95615.09;6026167;28;103727;-68
2022/11/01 14:09:42;;;;;;;10.00;9.00;;;;;;;22.60;42.53;95616.97;6030068;28;103904;-68
2022/11/01 14:13:06;;;;;;;9.57;8.67;;;;;;;22.62;42.93;95612.91;6030148;28;103662;-68
2022/11/01 14:16:21;;;;;;;9.20;8.40;;;;;;;22.60;43.13;95607.09;6032001;28;103910;-68
2022/11/01 14:19:26;;;;;;;9.50;8.60;;;;;;;22.61;42.85;95610.53;6020635;28;103737;-68
2022/11/01 14:22:32;;;;;;;9.80;8.90;;;;;;;22.60;42.78;95609.75;6029260;28;104211;-68
2022/11/01 14:25:35;;;;;;;9.40;8.50;;;;;;;22.60;43.18;95607.09;6030794;28;103797;-67